首页
METAR-TAF:

METAR-TAF

机场 :

科威特國際機場

科威特, 科威特

纬度: 29-13N, 经度: 047-59E, 海拔: 55米

当前天气观测

该预报发布于36分钟前的14:00 UTC
风速6节,风向
温度 29°C
湿度 74%
气压 1015 hPa
能見度: 8000
少量云层高于3000英尺, 积雨云.
多云层高于8000英尺
雷暴, 小雨

METAR: OKBK 231400Z 17006KT 8000 -TSRA FEW030CB BKN080 29/24 Q1015 NOSIG

时间: 17:36 (14:36 UTC)

预报

该预报发布于3小时和51分钟前的10:45 UTC
预报有效从23日的 12点(UTC)到 24日的 18点(UTC)
风速3节,风向多变
能見度: 6000
少量云层高于4000英尺
多云层高于8000英尺
短暂存在
从 23日的 12点(UTC)到 23日的 22点(UTC)
风速10节,风向东转东南,有时为20节阵风
能見度: 3000
少量云层高于3000英尺, 积雨云.

TAF: OKBK 231045Z 2312/2418 VRB03KT 6000 FEW040 BKN080 TEMPO 2312/2322 12010G20KT 3000 -TSRA/BLDU FEW030CB

超过4000个机场的气象观测和天气预报(METAR&TAF报告)。

可查询的气象台以黄色和红色小点在地图上表示。

将鼠标移到小点上方,可查看气象台名称。

然后点击查看天气观测和预报。

如需切换地图:点击带黑十字的绿色按钮放大地图;点击带横线的绿色按钮缩小地图;或者点击绿色箭头查看邻近地区的地图。


METAR-TAF: